createdAt,value
2023-05-14T00:01:23.876Z,101181.31
2023-05-14T00:03:53.303Z,101175.31
2023-05-14T00:06:21.522Z,101172.72
2023-05-14T00:08:49.378Z,101184.03
2023-05-14T00:11:17.254Z,101166.59
2023-05-14T00:13:45.087Z,101177.03
2023-05-14T00:16:13.124Z,101167.41
2023-05-14T00:18:41.355Z,101181.44
2023-05-14T00:21:10.505Z,101178.91
2023-05-14T00:23:38.383Z,101184.16
2023-05-14T00:26:06.289Z,101174.53
2023-05-14T00:28:34.233Z,101165.78
2023-05-14T00:31:02.117Z,101166.66
2023-05-14T00:33:29.887Z,101175.47
2023-05-14T00:35:57.699Z,101176.38
2023-05-14T00:38:28.464Z,101165.91
2023-05-14T00:40:56.646Z,101164.19
2023-05-14T00:43:25.202Z,101160.81
2023-05-14T00:45:56.028Z,101164.28
2023-05-14T00:48:30.018Z,101168.63
2023-05-14T00:51:03.102Z,101164.28
2023-05-14T00:53:36.807Z,101160.84
2023-05-14T00:56:08.467Z,101163.50
2023-05-14T00:58:42.459Z,101155.69
2023-05-14T01:04:06.561Z,101154.78
2023-05-14T01:06:52.153Z,101159.19
2023-05-14T01:09:31.289Z,101158.38
2023-05-14T01:12:10.721Z,101162.84
2023-05-14T01:14:47.189Z,101158.53
2023-05-14T01:17:24.282Z,101162.88
2023-05-14T01:19:58.292Z,101157.72
2023-05-14T01:22:28.709Z,101156.00
2023-05-14T01:25:05.363Z,101154.28
2023-05-14T01:27:44.318Z,101155.16
2023-05-14T01:30:21.006Z,101152.50
2023-05-14T01:32:56.158Z,101148.19
2023-05-14T01:35:29.538Z,101151.63
2023-05-14T01:38:16.754Z,101143.78
2023-05-14T01:40:47.659Z,101149.03
2023-05-14T01:43:17.615Z,101149.97
2023-05-14T01:45:48.535Z,101146.50
2023-05-14T01:48:20.715Z,101154.41
2023-05-14T01:50:52.700Z,101150.91
2023-05-14T01:53:27.692Z,101141.44
2023-05-14T01:56:04.584Z,101142.31
2023-05-14T01:58:38.352Z,101135.38
2023-05-14T02:01:10.707Z,101138.03
2023-05-14T02:03:51.266Z,101142.34
2023-05-14T02:06:26.219Z,101138.03
2023-05-14T02:09:06.386Z,101134.53
2023-05-14T02:11:40.693Z,101139.78
2023-05-14T02:14:11.633Z,101135.47
2023-05-14T02:16:48.144Z,101133.78
2023-05-14T02:19:19.283Z,101126.84
2023-05-14T02:21:55.142Z,101126.88
2023-05-14T02:24:29.117Z,101127.75
2023-05-14T02:27:01.361Z,101118.22
2023-05-14T02:29:30.188Z,101119.94
2023-05-14T02:32:03.573Z,101121.69
2023-05-14T02:34:44.534Z,101126.94
2023-05-14T02:37:28.913Z,101126.09
2023-05-14T02:39:59.094Z,101121.72
2023-05-14T02:42:33.758Z,101119.16
2023-05-14T02:45:04.730Z,101113.09
2023-05-14T02:47:41.482Z,101114.84
2023-05-14T02:50:11.716Z,101115.69
2023-05-14T02:52:51.151Z,101116.56
2023-05-14T02:55:26.634Z,101118.31
2023-05-14T02:57:55.693Z,101113.97
2023-05-14T03:00:26.102Z,101112.22
2023-05-14T03:02:58.921Z,101116.56
2023-05-14T03:05:30.103Z,101115.66
2023-05-14T03:07:59.572Z,101117.44
2023-05-14T03:10:33.169Z,101117.44
2023-05-14T03:13:02.121Z,101109.63
2023-05-14T03:15:35.413Z,101110.50
2023-05-14T03:18:07.674Z,101106.22
2023-05-14T03:20:36.632Z,101105.34
2023-05-14T03:23:07.392Z,101102.75
2023-05-14T03:25:45.354Z,101115.78
2023-05-14T03:28:24.792Z,101111.44
2023-05-14T03:31:01.820Z,101108.84
2023-05-14T03:33:32.115Z,101108.81
2023-05-14T03:36:13.206Z,101102.75
2023-05-14T03:38:55.369Z,101099.25
2023-05-14T03:41:30.324Z,101114.03
2023-05-14T03:44:01.301Z,101101.84
2023-05-14T03:46:35.688Z,101107.97
2023-05-14T03:49:23.250Z,101109.69
2023-05-14T03:52:01.922Z,101112.28
2023-05-14T03:54:36.551Z,101111.44
2023-05-14T03:57:06.947Z,101108.00
2023-05-14T03:59:36.692Z,101109.72
2023-05-14T04:02:09.899Z,101102.78
2023-05-14T04:04:38.533Z,101103.63
2023-05-14T04:07:09.035Z,101105.41
2023-05-14T04:09:52.232Z,101101.03
2023-05-14T04:12:32.854Z,101107.09
2023-05-14T04:15:04.427Z,101108.88
2023-05-14T04:17:39.042Z,101097.56
2023-05-14T04:20:13.991Z,101107.94
2023-05-14T04:22:45.117Z,101105.34
2023-05-14T04:25:15.457Z,101100.13
2023-05-14T04:27:46.301Z,101101.84
2023-05-14T04:30:35.878Z,101106.13
2023-05-14T04:33:12.512Z,101099.13
2023-05-14T04:35:41.787Z,101107.75
2023-05-14T04:38:11.483Z,101101.59
2023-05-14T04:40:40.056Z,101101.53
2023-05-14T04:43:14.903Z,101104.94
2023-05-14T04:46:02.490Z,101113.53
2023-05-14T04:48:39.890Z,101111.72
2023-05-14T04:51:14.341Z,101114.31
2023-05-14T04:53:44.757Z,101116.78
2023-05-14T04:56:15.081Z,101118.63
2023-05-14T04:58:50.314Z,101123.75
2023-05-14T05:01:22.502Z,101119.25
2023-05-14T05:03:58.414Z,101121.13
2023-05-14T05:06:30.160Z,101122.47
2023-05-14T05:09:03.505Z,101123.22
2023-05-14T05:11:31.414Z,101130.59
2023-05-14T05:14:00.765Z,101128.47
2023-05-14T05:16:28.653Z,101125.06
2023-05-14T05:18:56.553Z,101136.13
2023-05-14T05:21:24.444Z,101130.19
2023-05-14T05:23:52.213Z,101127.34
2023-05-14T05:26:20.097Z,101130.47
2023-05-14T05:28:47.924Z,101129.97
2023-05-14T05:31:19.643Z,101131.84
2023-05-14T05:33:49.216Z,101130.13
2023-05-14T05:36:17.068Z,101133.66
2023-05-14T05:38:44.833Z,101135.47
2023-05-14T05:41:12.640Z,101136.88
2023-05-14T05:43:40.637Z,101131.69
2023-05-14T05:46:08.545Z,101134.63
2023-05-14T05:48:37.743Z,101126.53
2023-05-14T05:51:05.947Z,101129.97
2023-05-14T05:53:33.837Z,101126.41
2023-05-14T05:56:01.638Z,101127.91
2023-05-14T05:58:29.464Z,101124.66
2023-05-14T06:00:58.191Z,101115.84
2023-05-14T06:03:27.018Z,101119.75
2023-05-14T06:05:56.160Z,101125.97
2023-05-14T06:08:23.969Z,101126.59
2023-05-14T06:10:51.821Z,101118.97
2023-05-14T06:13:19.599Z,101127.53
2023-05-14T06:15:47.380Z,101122.81
2023-05-14T06:18:15.296Z,101130.88
2023-05-14T06:20:43.250Z,101130.16
2023-05-14T06:23:12.510Z,101128.94
2023-05-14T06:25:40.378Z,101136.78
2023-05-14T06:28:08.172Z,101142.47
2023-05-14T06:30:35.974Z,101136.28
2023-05-14T06:33:03.947Z,101137.25
2023-05-14T06:35:31.887Z,101133.78
2023-05-14T06:37:59.852Z,101131.13
2023-05-14T06:40:29.058Z,101130.56
2023-05-14T06:42:56.820Z,101132.63
2023-05-14T06:45:24.683Z,101126.59
2023-05-14T06:47:52.652Z,101123.28
2023-05-14T06:50:20.569Z,101122.84
2023-05-14T06:52:48.709Z,101119.84
2023-05-14T06:55:16.549Z,101119.75
2023-05-14T06:57:45.733Z,101123.56
2023-05-14T07:00:15.701Z,101122.38
2023-05-14T07:02:43.558Z,101125.00
2023-05-14T07:05:11.558Z,101127.91
2023-05-14T07:07:39.556Z,101125.72
2023-05-14T07:10:08.519Z,101123.84
2023-05-14T07:12:36.356Z,101118.13
2023-05-14T07:15:06.677Z,101122.16
2023-05-14T07:17:34.740Z,101122.50
2023-05-14T07:20:02.806Z,101129.00
2023-05-14T07:22:30.709Z,101125.81
2023-05-14T07:24:58.590Z,101125.97
2023-05-14T07:27:26.396Z,101119.84
2023-05-14T07:29:54.226Z,101119.97
2023-05-14T07:32:25.131Z,101112.53
2023-05-14T07:34:53.153Z,101109.28
2023-05-14T07:37:23.929Z,101113.47
2023-05-14T07:39:52.081Z,101104.03
2023-05-14T07:42:31.701Z,101107.41
2023-05-14T07:45:02.854Z,101113.50
2023-05-14T07:47:32.461Z,101109.19
2023-05-14T07:50:00.943Z,101106.41
2023-05-14T07:52:28.947Z,101106.53
2023-05-14T07:54:56.809Z,101103.66
2023-05-14T07:57:24.643Z,101098.78
2023-05-14T07:59:52.538Z,101089.31
2023-05-14T08:02:20.497Z,101093.19
2023-05-14T08:04:49.786Z,101094.19
2023-05-14T08:07:17.638Z,101085.94
2023-05-14T08:09:45.463Z,101091.19
2023-05-14T08:12:13.313Z,101093.41
2023-05-14T08:14:41.662Z,101087.97
2023-05-14T08:17:09.806Z,101086.16
2023-05-14T08:19:37.905Z,101086.22
2023-05-14T08:22:07.437Z,101088.94
2023-05-14T08:24:35.434Z,101092.47
2023-05-14T08:27:03.401Z,101087.94
2023-05-14T08:29:31.355Z,101088.28
2023-05-14T08:32:03.853Z,101082.28
2023-05-14T08:34:39.928Z,101080.34
2023-05-14T08:37:09.139Z,101087.59
2023-05-14T08:39:37.028Z,101082.69
2023-05-14T08:42:07.998Z,101086.25
2023-05-14T08:44:40.387Z,101075.28
2023-05-14T08:47:13.661Z,101088.44
2023-05-14T08:49:42.701Z,101077.88
2023-05-14T08:52:12.424Z,101073.94
2023-05-14T08:54:40.906Z,101078.91
2023-05-14T08:57:10.773Z,101073.00
2023-05-14T08:59:38.992Z,101080.22
2023-05-14T09:02:07.852Z,101068.44
2023-05-14T09:04:35.722Z,101069.22
2023-05-14T09:07:06.627Z,101067.81
2023-05-14T09:09:36.201Z,101061.84
2023-05-14T09:12:04.309Z,101061.19
2023-05-14T09:14:34.110Z,101067.22
2023-05-14T09:17:02.311Z,101058.97
2023-05-14T09:19:30.170Z,101061.31
2023-05-14T09:21:59.607Z,101060.63
2023-05-14T09:24:29.657Z,101054.66
2023-05-14T09:26:59.805Z,101062.84
2023-05-14T09:29:28.516Z,101046.47
2023-05-14T09:31:57.393Z,101046.66
2023-05-14T09:34:26.187Z,101051.69
2023-05-14T09:36:57.285Z,101045.72
2023-05-14T09:39:25.662Z,101040.06
2023-05-14T09:41:53.836Z,101046.91
2023-05-14T09:44:23.438Z,101038.94
2023-05-14T09:46:51.673Z,101034.53
2023-05-14T09:49:19.947Z,101029.91
2023-05-14T09:51:48.202Z,101028.88
2023-05-14T09:54:16.223Z,101028.53
2023-05-14T09:56:45.197Z,101025.25
2023-05-14T09:59:13.164Z,101024.69
2023-05-14T10:01:44.639Z,101018.53
2023-05-14T10:04:13.592Z,101025.41
2023-05-14T10:06:42.871Z,101016.28
2023-05-14T10:09:13.288Z,101016.00
2023-05-14T10:11:45.058Z,101014.53
2023-05-14T10:14:18.216Z,101006.22
2023-05-14T10:16:50.191Z,101002.19
2023-05-14T10:19:19.684Z,101002.16
2023-05-14T10:21:54.099Z,100999.16
2023-05-14T10:24:22.453Z,100994.69
2023-05-14T10:26:50.550Z,100995.88
2023-05-14T10:29:18.484Z,100989.47
2023-05-14T10:31:50.094Z,100989.16
2023-05-14T10:34:37.525Z,100980.72
2023-05-14T10:37:06.335Z,100987.69
2023-05-14T10:39:45.339Z,100989.25
2023-05-14T10:42:14.064Z,100980.81
2023-05-14T10:44:48.650Z,100988.06
2023-05-14T10:47:18.582Z,100978.91
2023-05-14T10:49:49.140Z,100977.28
2023-05-14T10:52:20.700Z,100966.72
2023-05-14T10:54:53.047Z,100967.53
2023-05-14T10:57:23.302Z,100959.50
2023-05-14T10:59:53.272Z,100955.19
2023-05-14T11:02:26.190Z,100953.13
2023-05-14T11:04:59.503Z,100952.50
2023-05-14T11:07:32.938Z,100957.03
2023-05-14T11:10:06.823Z,100954.25
2023-05-14T11:12:35.820Z,100950.91
2023-05-14T11:15:06.092Z,100954.34
2023-05-14T11:17:36.807Z,100957.13
2023-05-14T11:20:06.406Z,100949.13
2023-05-14T11:22:34.684Z,100954.78
2023-05-14T11:25:02.767Z,100951.28
2023-05-14T11:27:31.697Z,100950.09
2023-05-14T11:30:00.955Z,100946.75
2023-05-14T11:32:29.061Z,100947.19
2023-05-14T11:34:58.431Z,100944.16
2023-05-14T11:37:26.298Z,100936.09
2023-05-14T11:39:55.273Z,100933.69
2023-05-14T11:42:25.011Z,100931.81
2023-05-14T11:44:56.881Z,100922.97
2023-05-14T11:47:24.841Z,100931.94
2023-05-14T11:49:52.807Z,100925.97
2023-05-14T11:52:22.271Z,100922.44
2023-05-14T11:54:50.921Z,100925.00
2023-05-14T11:57:21.064Z,100919.94
2023-05-14T11:59:50.663Z,100911.00
2023-05-14T12:02:19.803Z,100917.13
2023-05-14T12:04:52.031Z,100918.22
2023-05-14T12:07:20.455Z,100911.81
2023-05-14T12:09:50.768Z,100912.13
2023-05-14T12:12:20.241Z,100914.31
2023-05-14T12:14:48.360Z,100903.81
2023-05-14T12:17:17.732Z,100895.59
2023-05-14T12:19:47.026Z,100900.78
2023-05-14T12:22:16.661Z,100887.25
2023-05-14T12:24:45.134Z,100889.13
2023-05-14T12:27:14.762Z,100876.66
2023-05-14T12:29:44.784Z,100869.25
2023-05-14T12:32:12.738Z,100871.16
2023-05-14T12:34:40.581Z,100866.00
2023-05-14T12:37:08.503Z,100861.84
2023-05-14T12:39:36.882Z,100861.38
2023-05-14T12:42:04.956Z,100865.00
2023-05-14T12:44:34.278Z,100862.47
2023-05-14T12:47:02.208Z,100866.75
2023-05-14T12:49:30.155Z,100855.44
2023-05-14T12:52:17.087Z,100860.13
2023-05-14T12:54:45.896Z,100851.75
2023-05-14T12:57:13.835Z,100843.94
2023-05-14T12:59:43.043Z,100837.66
2023-05-14T13:02:10.911Z,100839.94
2023-05-14T13:04:39.302Z,100838.84
2023-05-14T13:07:08.810Z,100832.91
2023-05-14T13:09:36.724Z,100822.94
2023-05-14T13:12:05.074Z,100826.09
2023-05-14T13:14:32.924Z,100828.94
2023-05-14T13:17:02.165Z,100828.19
2023-05-14T13:19:30.081Z,100823.66
2023-05-14T13:21:58.081Z,100824.84
2023-05-14T13:24:28.540Z,100823.47
2023-05-14T13:26:56.612Z,100814.78
2023-05-14T13:29:25.532Z,100822.81
2023-05-14T13:31:53.806Z,100821.91
2023-05-14T13:34:23.072Z,100812.47
2023-05-14T13:36:51.162Z,100810.09
2023-05-14T13:41:50.795Z,100795.16
2023-05-14T13:44:18.721Z,100794.56
2023-05-14T13:46:46.673Z,100794.34
2023-05-14T13:49:14.615Z,100794.25
2023-05-14T13:51:43.922Z,100783.84
2023-05-14T13:54:11.824Z,100775.28
2023-05-14T13:56:39.808Z,100772.56
2023-05-14T13:59:07.735Z,100770.22
2023-05-14T14:01:35.659Z,100765.28
2023-05-14T14:04:03.588Z,100761.19
2023-05-14T14:06:33.139Z,100769.34
2023-05-14T14:09:02.419Z,100768.06
2023-05-14T14:11:30.342Z,100759.72
2023-05-14T14:13:58.223Z,100768.13
2023-05-14T14:16:26.066Z,100754.09
2023-05-14T14:18:54.062Z,100756.47
2023-05-14T14:21:21.942Z,100750.03
2023-05-14T14:23:49.721Z,100746.41
2023-05-14T14:26:18.903Z,100748.03
2023-05-14T14:28:46.770Z,100741.16
2023-05-14T14:31:14.910Z,100744.78
2023-05-14T14:33:42.907Z,100741.56
2023-05-14T14:36:11.364Z,100737.94
2023-05-14T14:38:39.943Z,100742.56
2023-05-14T14:41:08.004Z,100742.78
2023-05-14T14:43:37.740Z,100743.00
2023-05-14T14:46:05.805Z,100741.00
2023-05-14T14:48:37.448Z,100740.44
2023-05-14T14:51:06.671Z,100735.44
2023-05-14T14:53:35.917Z,100743.53
2023-05-14T14:56:04.096Z,100725.72
2023-05-14T14:58:32.056Z,100730.41
2023-05-14T15:01:02.089Z,100719.28
2023-05-14T15:03:30.195Z,100720.16
2023-05-14T15:05:58.254Z,100725.38
2023-05-14T15:08:27.582Z,100727.31
2023-05-14T15:10:55.867Z,100727.53
2023-05-14T15:13:24.390Z,100723.56
2023-05-14T15:15:52.851Z,100716.75
2023-05-14T15:18:22.231Z,100720.69
2023-05-14T15:20:50.610Z,100710.44
2023-05-14T15:23:18.523Z,100711.59
2023-05-14T15:25:46.436Z,100720.81
2023-05-14T15:28:14.289Z,100720.78
2023-05-14T15:30:42.119Z,100725.38
2023-05-14T15:33:10.121Z,100725.38
2023-05-14T15:35:39.363Z,100723.31
2023-05-14T15:38:08.246Z,100718.41
2023-05-14T15:40:36.160Z,100719.94
2023-05-14T15:43:04.182Z,100720.03
2023-05-14T15:45:32.112Z,100709.75
2023-05-14T15:48:00.055Z,100708.94
2023-05-14T15:50:28.017Z,100717.50
2023-05-14T15:52:57.361Z,100707.03
2023-05-14T15:55:25.308Z,100702.44
2023-05-14T15:57:53.123Z,100699.25
2023-05-14T16:00:21.790Z,100708.72
2023-05-14T16:02:49.872Z,100704.84
2023-05-14T16:05:17.880Z,100706.06
2023-05-14T16:07:45.790Z,100700.84
2023-05-14T16:10:15.073Z,100701.97
2023-05-14T16:12:42.911Z,100703.72
2023-05-14T16:15:11.688Z,100703.19
2023-05-14T16:17:39.877Z,100705.94
2023-05-14T16:20:09.608Z,100703.63
2023-05-14T16:22:37.724Z,100700.75
2023-05-14T16:25:06.410Z,100703.13
2023-05-14T16:27:36.531Z,100698.47
2023-05-14T16:30:05.080Z,100698.91
2023-05-14T16:32:33.741Z,100699.94
2023-05-14T16:35:02.672Z,100696.19
2023-05-14T16:37:30.648Z,100700.09
2023-05-14T16:39:58.485Z,100702.44
2023-05-14T16:42:26.766Z,100694.72
2023-05-14T16:44:55.874Z,100692.63
2023-05-14T16:47:23.749Z,100691.84
2023-05-14T16:49:51.617Z,100700.91
2023-05-14T16:52:19.499Z,100698.66
2023-05-14T16:54:47.235Z,100701.63
2023-05-14T16:57:15.140Z,100703.81
2023-05-14T16:59:43.080Z,100696.94
2023-05-14T17:02:12.286Z,100701.69
2023-05-14T17:04:42.124Z,100701.69
2023-05-14T17:07:10.244Z,100704.16
2023-05-14T17:09:38.460Z,100705.13
2023-05-14T17:12:06.940Z,100697.56
2023-05-14T17:14:34.857Z,100699.16
2023-05-14T17:17:03.085Z,100698.03
2023-05-14T17:19:32.330Z,100699.63
2023-05-14T17:22:00.572Z,100706.59
2023-05-14T17:24:28.533Z,100699.13
2023-05-14T17:26:56.555Z,100703.97
2023-05-14T17:29:24.560Z,100697.41
2023-05-14T17:31:52.543Z,100700.72
2023-05-14T17:34:21.070Z,100703.88
2023-05-14T17:36:50.630Z,100703.44
2023-05-14T17:39:18.451Z,100704.34
2023-05-14T17:41:46.360Z,100706.91
2023-05-14T17:44:14.429Z,100699.22
2023-05-14T17:46:42.649Z,100710.47
2023-05-14T17:49:11.781Z,100711.03
2023-05-14T17:51:39.691Z,100713.78
2023-05-14T17:54:09.006Z,100721.25
2023-05-14T17:56:37.280Z,100719.72
2023-05-14T17:59:05.571Z,100724.16
2023-05-14T18:01:33.799Z,100727.50
2023-05-14T18:04:01.717Z,100730.28
2023-05-14T18:06:29.756Z,100727.63
2023-05-14T18:08:57.729Z,100728.28
2023-05-14T18:11:32.650Z,100725.81
2023-05-14T18:14:00.828Z,100729.25
2023-05-14T18:16:29.259Z,100735.44
2023-05-14T18:18:57.246Z,100735.94
2023-05-14T18:21:25.223Z,100732.34
2023-05-14T18:23:53.116Z,100728.56
2023-05-14T18:26:21.896Z,100735.50
2023-05-14T18:28:51.424Z,100733.88
2023-05-14T18:31:19.588Z,100734.22
2023-05-14T18:33:47.520Z,100737.06
2023-05-14T18:36:15.466Z,100729.44
2023-05-14T18:38:43.348Z,100728.34
2023-05-14T18:41:11.193Z,100739.50
2023-05-14T18:43:39.114Z,100741.81
2023-05-14T18:46:08.481Z,100739.88
2023-05-14T18:48:36.364Z,100742.00
2023-05-14T18:51:05.349Z,100748.56
2023-05-14T18:53:33.269Z,100743.59
2023-05-14T18:56:01.330Z,100746.03
2023-05-14T18:58:29.198Z,100752.56
2023-05-14T19:00:58.387Z,100749.16
2023-05-14T19:03:28.142Z,100758.97
2023-05-14T19:05:56.857Z,100749.31
2023-05-14T19:08:25.365Z,100750.00
2023-05-14T19:10:54.825Z,100754.06
2023-05-14T19:13:23.776Z,100756.88
2023-05-14T19:15:54.705Z,100756.19
2023-05-14T19:18:23.195Z,100753.09
2023-05-14T19:20:52.692Z,100758.22
2023-05-14T19:23:21.062Z,100764.63
2023-05-14T19:25:49.025Z,100770.56
2023-05-14T19:28:19.861Z,100774.22
2023-05-14T19:30:47.887Z,100773.84
2023-05-14T19:33:15.957Z,100778.38
2023-05-14T19:35:43.959Z,100788.47
2023-05-14T19:38:14.649Z,100787.16
2023-05-14T19:40:44.392Z,100790.03
2023-05-14T19:43:12.991Z,100784.00
2023-05-14T19:45:42.627Z,100792.81
2023-05-14T19:48:12.397Z,100793.22
2023-05-14T19:50:41.405Z,100792.94
2023-05-14T19:53:09.303Z,100798.19
2023-05-14T19:55:38.713Z,100799.69
2023-05-14T19:58:06.621Z,100796.75
2023-05-14T20:00:34.507Z,100792.63
2023-05-14T20:03:02.591Z,100797.31
2023-05-14T20:05:30.631Z,100796.44
2023-05-14T20:07:58.479Z,100796.81
2023-05-14T20:10:26.662Z,100800.06
2023-05-14T20:12:56.215Z,100801.53
2023-05-14T20:15:24.280Z,100795.44
2023-05-14T20:17:53.601Z,100794.59
2023-05-14T20:20:22.279Z,100792.06
2023-05-14T20:22:50.695Z,100788.91
2023-05-14T20:25:18.883Z,100788.53
2023-05-14T20:27:47.720Z,100783.38
2023-05-14T20:30:20.123Z,100779.81
2023-05-14T20:32:50.374Z,100777.47
2023-05-14T20:35:21.445Z,100779.63
2023-05-14T20:37:50.683Z,100779.09
2023-05-14T20:40:21.529Z,100772.69
2023-05-14T20:42:51.484Z,100783.88
2023-05-14T20:45:21.642Z,100780.56
2023-05-14T20:47:50.101Z,100774.59
2023-05-14T20:50:23.979Z,100766.63
2023-05-14T20:52:57.350Z,100777.97
2023-05-14T20:55:32.862Z,100765.16
2023-05-14T20:58:01.205Z,100769.56
2023-05-14T21:00:30.804Z,100775.34
2023-05-14T21:03:00.206Z,100770.66
2023-05-14T21:05:29.047Z,100767.00
2023-05-14T21:07:57.262Z,100765.50
2023-05-14T21:10:28.792Z,100765.56
2023-05-14T21:13:02.369Z,100771.34
2023-05-14T21:15:32.733Z,100774.78
2023-05-14T21:18:01.226Z,100768.53
2023-05-14T21:20:30.911Z,100782.75
2023-05-14T21:23:01.269Z,100778.50
2023-05-14T21:25:31.800Z,100790.97
2023-05-14T21:28:00.154Z,100789.13
2023-05-14T21:30:32.851Z,100772.59
2023-05-14T21:33:02.208Z,100778.63
2023-05-14T21:35:30.188Z,100770.59
2023-05-14T21:38:05.883Z,100769.56
2023-05-14T21:40:34.051Z,100772.06
2023-05-14T21:43:04.796Z,100767.66
2023-05-14T21:45:37.590Z,100771.06
2023-05-14T21:48:07.914Z,100764.25
2023-05-14T21:50:37.108Z,100767.13
2023-05-14T21:53:06.899Z,100762.94
2023-05-14T21:55:36.133Z,100763.94
2023-05-14T21:58:07.119Z,100768.38
2023-05-14T22:00:36.754Z,100760.44
2023-05-14T22:03:09.189Z,100763.00
2023-05-14T22:05:38.065Z,100761.22
2023-05-14T22:08:11.255Z,100765.97
2023-05-14T22:10:47.065Z,100759.09
2023-05-14T22:13:17.800Z,100764.56
2023-05-14T22:15:47.409Z,100759.94
2023-05-14T22:18:16.396Z,100763.91
2023-05-14T22:20:44.261Z,100759.00
2023-05-14T22:23:13.055Z,100762.47
2023-05-14T22:25:41.032Z,100765.00
2023-05-14T22:28:08.958Z,100764.47
2023-05-14T22:30:36.882Z,100755.53
2023-05-14T22:33:06.152Z,100747.34
2023-05-14T22:35:34.109Z,100748.00
2023-05-14T22:38:02.031Z,100741.00
2023-05-14T22:40:29.856Z,100742.03
2023-05-14T22:42:57.683Z,100742.84
2023-05-14T22:45:25.773Z,100731.50
2023-05-14T22:47:54.240Z,100733.50
2023-05-14T22:50:23.581Z,100717.63
2023-05-14T22:52:51.483Z,100728.97
2023-05-14T22:55:19.414Z,100728.13
2023-05-14T22:57:47.304Z,100734.25
2023-05-14T23:00:16.160Z,100717.81
2023-05-14T23:02:44.504Z,100726.06
2023-05-14T23:05:12.463Z,100719.28
2023-05-14T23:07:41.809Z,100717.63
2023-05-14T23:10:10.478Z,100717.00
2023-05-14T23:12:38.419Z,100718.94
2023-05-14T23:15:07.359Z,100711.19
2023-05-14T23:17:35.516Z,100720.13
2023-05-14T23:20:04.889Z,100718.84
2023-05-14T23:22:32.968Z,100713.59
2023-05-14T23:25:02.216Z,100708.31
2023-05-14T23:27:29.983Z,100712.03
2023-05-14T23:29:57.944Z,100709.63
2023-05-14T23:32:25.848Z,100711.84
2023-05-14T23:34:53.826Z,100707.66
2023-05-14T23:37:21.798Z,100713.06
2023-05-14T23:39:49.668Z,100704.78
2023-05-14T23:42:19.060Z,100715.50
2023-05-14T23:44:47.020Z,100709.66
2023-05-14T23:47:14.895Z,100708.88
2023-05-14T23:49:42.887Z,100703.78
2023-05-14T23:52:11.312Z,100692.72
2023-05-14T23:54:39.294Z,100690.16
2023-05-14T23:57:07.539Z,100686.69
2023-05-14T23:59:36.879Z,100686.34
